sensor_id;sensor_type;location;lat;lon;timestamp;temperature;humidity
10802;DHT22;5453;50.852;7.102;2023-08-06T00:02:19;16.90;99.90
10802;DHT22;5453;50.852;7.102;2023-08-06T00:04:51;16.80;99.90
10802;DHT22;5453;50.852;7.102;2023-08-06T00:07:24;16.90;99.90
10802;DHT22;5453;50.852;7.102;2023-08-06T00:09:56;16.80;99.90
10802;DHT22;5453;50.852;7.102;2023-08-06T00:12:33;16.80;99.90
10802;DHT22;5453;50.852;7.102;2023-08-06T00:15:06;16.70;99.90
10802;DHT22;5453;50.852;7.102;2023-08-06T00:17:39;16.70;99.90
10802;DHT22;5453;50.852;7.102;2023-08-06T00:20:11;16.60;99.90
10802;DHT22;5453;50.852;7.102;2023-08-06T00:22:44;16.60;99.90
10802;DHT22;5453;50.852;7.102;2023-08-06T00:25:16;16.60;99.90
10802;DHT22;5453;50.852;7.102;2023-08-06T00:27:50;16.70;99.90
10802;DHT22;5453;50.852;7.102;2023-08-06T00:30:22;16.60;99.90
10802;DHT22;5453;50.852;7.102;2023-08-06T00:32:58;16.60;99.90
10802;DHT22;5453;50.852;7.102;2023-08-06T00:35:30;16.60;99.90
10802;DHT22;5453;50.852;7.102;2023-08-06T00:38:02;16.60;99.90
10802;DHT22;5453;50.852;7.102;2023-08-06T00:40:38;16.60;99.90
10802;DHT22;5453;50.852;7.102;2023-08-06T00:43:12;16.50;99.90
10802;DHT22;5453;50.852;7.102;2023-08-06T00:45:44;16.50;99.90
10802;DHT22;5453;50.852;7.102;2023-08-06T00:48:17;16.50;99.90
10802;DHT22;5453;50.852;7.102;2023-08-06T00:50:49;16.50;99.90
10802;DHT22;5453;50.852;7.102;2023-08-06T00:53:22;16.50;99.90
10802;DHT22;5453;50.852;7.102;2023-08-06T00:55:55;16.50;99.90
10802;DHT22;5453;50.852;7.102;2023-08-06T00:58:29;16.50;99.90
10802;DHT22;5453;50.852;7.102;2023-08-06T01:01:01;16.50;99.90
10802;DHT22;5453;50.852;7.102;2023-08-06T01:03:34;16.40;99.90
10802;DHT22;5453;50.852;7.102;2023-08-06T01:06:06;16.40;99.90
10802;DHT22;5453;50.852;7.102;2023-08-06T01:08:46;16.40;99.90
10802;DHT22;5453;50.852;7.102;2023-08-06T01:11:25;16.40;99.90
10802;DHT22;5453;50.852;7.102;2023-08-06T01:14:12;16.40;99.90
10802;DHT22;5453;50.852;7.102;2023-08-06T01:16:55;16.40;99.90
10802;DHT22;5453;50.852;7.102;2023-08-06T01:19:28;16.40;99.90
10802;DHT22;5453;50.852;7.102;2023-08-06T01:22:02;16.40;99.90
10802;DHT22;5453;50.852;7.102;2023-08-06T01:24:37;16.40;99.90
10802;DHT22;5453;50.852;7.102;2023-08-06T01:27:14;16.40;99.90
10802;DHT22;5453;50.852;7.102;2023-08-06T01:29:59;16.30;99.90
10802;DHT22;5453;50.852;7.102;2023-08-06T01:32:36;16.40;99.90
10802;DHT22;5453;50.852;7.102;2023-08-06T01:35:12;16.40;99.90
10802;DHT22;5453;50.852;7.102;2023-08-06T01:37:47;16.40;99.90
10802;DHT22;5453;50.852;7.102;2023-08-06T01:40:20;16.40;99.90
10802;DHT22;5453;50.852;7.102;2023-08-06T01:42:56;16.40;99.90
10802;DHT22;5453;50.852;7.102;2023-08-06T01:45:28;16.40;99.90
10802;DHT22;5453;50.852;7.102;2023-08-06T01:48:00;16.40;99.90
10802;DHT22;5453;50.852;7.102;2023-08-06T01:50:33;16.40;99.90
10802;DHT22;5453;50.852;7.102;2023-08-06T01:53:10;16.40;99.90
10802;DHT22;5453;50.852;7.102;2023-08-06T01:55:42;16.40;99.90
10802;DHT22;5453;50.852;7.102;2023-08-06T01:58:19;16.40;99.90
10802;DHT22;5453;50.852;7.102;2023-08-06T02:00:55;16.40;99.90
10802;DHT22;5453;50.852;7.102;2023-08-06T02:03:28;16.40;99.90
10802;DHT22;5453;50.852;7.102;2023-08-06T02:06:01;16.40;99.90
10802;DHT22;5453;50.852;7.102;2023-08-06T02:08:35;16.40;99.90
10802;DHT22;5453;50.852;7.102;2023-08-06T02:11:08;16.40;99.90
10802;DHT22;5453;50.852;7.102;2023-08-06T02:13:40;16.40;99.90
10802;DHT22;5453;50.852;7.102;2023-08-06T02:16:12;16.40;99.90
10802;DHT22;5453;50.852;7.102;2023-08-06T02:18:48;16.40;99.90
10802;DHT22;5453;50.852;7.102;2023-08-06T02:21:20;16.40;99.90
10802;DHT22;5453;50.852;7.102;2023-08-06T02:23:54;16.40;99.90
10802;DHT22;5453;50.852;7.102;2023-08-06T02:26:26;16.40;99.90
10802;DHT22;5453;50.852;7.102;2023-08-06T02:29:03;16.40;99.90
10802;DHT22;5453;50.852;7.102;2023-08-06T02:31:35;16.40;99.90
10802;DHT22;5453;50.852;7.102;2023-08-06T02:34:10;16.40;99.90
10802;DHT22;5453;50.852;7.102;2023-08-06T02:36:43;16.40;99.90
10802;DHT22;5453;50.852;7.102;2023-08-06T02:39:16;16.30;99.90
10802;DHT22;5453;50.852;7.102;2023-08-06T02:41:49;16.30;99.90
10802;DHT22;5453;50.852;7.102;2023-08-06T02:44:21;16.30;99.90
10802;DHT22;5453;50.852;7.102;2023-08-06T02:46:57;16.30;99.90
10802;DHT22;5453;50.852;7.102;2023-08-06T02:49:30;16.30;99.90
10802;DHT22;5453;50.852;7.102;2023-08-06T02:52:02;16.30;99.90
10802;DHT22;5453;50.852;7.102;2023-08-06T02:54:36;16.30;99.90
10802;DHT22;5453;50.852;7.102;2023-08-06T02:57:12;16.30;99.90
10802;DHT22;5453;50.852;7.102;2023-08-06T02:59:44;16.30;99.90
10802;DHT22;5453;50.852;7.102;2023-08-06T03:02:23;16.30;99.90
10802;DHT22;5453;50.852;7.102;2023-08-06T03:05:05;16.30;99.90
10802;DHT22;5453;50.852;7.102;2023-08-06T03:07:41;16.30;99.90
10802;DHT22;5453;50.852;7.102;2023-08-06T03:10:21;16.30;99.90
10802;DHT22;5453;50.852;7.102;2023-08-06T03:12:59;16.30;99.90
10802;DHT22;5453;50.852;7.102;2023-08-06T03:15:32;16.30;99.90
10802;DHT22;5453;50.852;7.102;2023-08-06T03:18:06;16.20;99.90
10802;DHT22;5453;50.852;7.102;2023-08-06T03:20:39;16.20;99.90
10802;DHT22;5453;50.852;7.102;2023-08-06T03:23:12;16.20;99.90
10802;DHT22;5453;50.852;7.102;2023-08-06T03:25:47;16.20;99.90
10802;DHT22;5453;50.852;7.102;2023-08-06T03:28:19;16.10;99.90
10802;DHT22;5453;50.852;7.102;2023-08-06T03:30:59;16.10;99.90
10802;DHT22;5453;50.852;7.102;2023-08-06T03:33:35;16.00;99.90
10802;DHT22;5453;50.852;7.102;2023-08-06T03:36:12;16.00;99.90
10802;DHT22;5453;50.852;7.102;2023-08-06T03:38:46;16.00;99.90
10802;DHT22;5453;50.852;7.102;2023-08-06T03:41:20;15.90;99.90
10802;DHT22;5453;50.852;7.102;2023-08-06T03:43:53;15.90;99.90
10802;DHT22;5453;50.852;7.102;2023-08-06T03:46:30;15.90;99.90
10802;DHT22;5453;50.852;7.102;2023-08-06T03:49:05;15.90;99.90
10802;DHT22;5453;50.852;7.102;2023-08-06T03:51:37;15.90;99.90
10802;DHT22;5453;50.852;7.102;2023-08-06T03:54:10;15.90;99.90
10802;DHT22;5453;50.852;7.102;2023-08-06T03:56:44;15.90;99.90
10802;DHT22;5453;50.852;7.102;2023-08-06T03:59:16;15.90;99.90
10802;DHT22;5453;50.852;7.102;2023-08-06T04:01:50;15.90;99.90
10802;DHT22;5453;50.852;7.102;2023-08-06T04:04:23;15.90;99.90
10802;DHT22;5453;50.852;7.102;2023-08-06T04:06:55;15.90;99.90
10802;DHT22;5453;50.852;7.102;2023-08-06T04:09:28;16.00;99.90
10802;DHT22;5453;50.852;7.102;2023-08-06T04:12:02;16.00;99.90
10802;DHT22;5453;50.852;7.102;2023-08-06T04:14:35;16.00;99.90
10802;DHT22;5453;50.852;7.102;2023-08-06T04:17:08;16.00;99.90
10802;DHT22;5453;50.852;7.102;2023-08-06T04:19:41;15.90;99.90
10802;DHT22;5453;50.852;7.102;2023-08-06T04:22:13;16.00;99.90
10802;DHT22;5453;50.852;7.102;2023-08-06T04:24:46;16.00;99.90
10802;DHT22;5453;50.852;7.102;2023-08-06T04:27:24;16.00;99.90
10802;DHT22;5453;50.852;7.102;2023-08-06T04:29:57;15.90;99.90
10802;DHT22;5453;50.852;7.102;2023-08-06T04:32:30;16.00;99.90
10802;DHT22;5453;50.852;7.102;2023-08-06T04:35:03;15.90;99.90
10802;DHT22;5453;50.852;7.102;2023-08-06T04:37:36;15.90;99.90
10802;DHT22;5453;50.852;7.102;2023-08-06T04:40:09;16.00;99.90
10802;DHT22;5453;50.852;7.102;2023-08-06T04:42:44;16.00;99.90
10802;DHT22;5453;50.852;7.102;2023-08-06T04:45:16;16.00;99.90
10802;DHT22;5453;50.852;7.102;2023-08-06T04:47:48;16.00;99.90
10802;DHT22;5453;50.852;7.102;2023-08-06T04:50:21;16.00;99.90
10802;DHT22;5453;50.852;7.102;2023-08-06T04:52:53;16.00;99.90
10802;DHT22;5453;50.852;7.102;2023-08-06T04:55:26;16.00;99.90
10802;DHT22;5453;50.852;7.102;2023-08-06T04:57:59;16.00;99.90
10802;DHT22;5453;50.852;7.102;2023-08-06T05:00:32;16.00;99.90
10802;DHT22;5453;50.852;7.102;2023-08-06T05:03:05;16.00;99.90
10802;DHT22;5453;50.852;7.102;2023-08-06T05:05:40;16.00;99.90
10802;DHT22;5453;50.852;7.102;2023-08-06T05:08:14;16.00;99.90
10802;DHT22;5453;50.852;7.102;2023-08-06T05:10:48;16.00;99.90
10802;DHT22;5453;50.852;7.102;2023-08-06T05:13:25;16.10;99.90
10802;DHT22;5453;50.852;7.102;2023-08-06T05:15:57;16.10;99.90
10802;DHT22;5453;50.852;7.102;2023-08-06T05:18:30;16.10;99.90
10802;DHT22;5453;50.852;7.102;2023-08-06T05:21:02;16.10;99.90
10802;DHT22;5453;50.852;7.102;2023-08-06T05:23:35;16.10;99.90
10802;DHT22;5453;50.852;7.102;2023-08-06T05:26:07;16.20;99.90
10802;DHT22;5453;50.852;7.102;2023-08-06T05:28:41;16.20;99.90
10802;DHT22;5453;50.852;7.102;2023-08-06T05:31:13;16.20;99.90
10802;DHT22;5453;50.852;7.102;2023-08-06T05:33:45;16.20;99.90
10802;DHT22;5453;50.852;7.102;2023-08-06T05:36:18;16.30;99.90
10802;DHT22;5453;50.852;7.102;2023-08-06T05:38:50;16.30;99.90
10802;DHT22;5453;50.852;7.102;2023-08-06T05:41:22;16.40;99.90
10802;DHT22;5453;50.852;7.102;2023-08-06T05:43:56;16.40;99.90
10802;DHT22;5453;50.852;7.102;2023-08-06T05:46:28;16.50;99.90
10802;DHT22;5453;50.852;7.102;2023-08-06T05:49:01;16.50;99.90
10802;DHT22;5453;50.852;7.102;2023-08-06T05:51:37;16.60;99.90
10802;DHT22;5453;50.852;7.102;2023-08-06T05:54:10;16.60;99.90
10802;DHT22;5453;50.852;7.102;2023-08-06T05:56:42;16.60;99.90
10802;DHT22;5453;50.852;7.102;2023-08-06T05:59:16;16.70;99.90
10802;DHT22;5453;50.852;7.102;2023-08-06T06:01:48;16.80;99.90
10802;DHT22;5453;50.852;7.102;2023-08-06T06:04:20;16.80;99.90
10802;DHT22;5453;50.852;7.102;2023-08-06T06:06:53;16.80;99.90
10802;DHT22;5453;50.852;7.102;2023-08-06T06:09:25;16.90;99.90
10802;DHT22;5453;50.852;7.102;2023-08-06T06:11:58;16.90;99.90
10802;DHT22;5453;50.852;7.102;2023-08-06T06:14:32;16.80;99.90
10802;DHT22;5453;50.852;7.102;2023-08-06T06:17:04;16.80;99.90
10802;DHT22;5453;50.852;7.102;2023-08-06T06:19:37;16.90;99.90
10802;DHT22;5453;50.852;7.102;2023-08-06T06:22:09;16.80;99.90
10802;DHT22;5453;50.852;7.102;2023-08-06T06:24:41;16.90;99.90
10802;DHT22;5453;50.852;7.102;2023-08-06T06:27:14;16.90;99.90
10802;DHT22;5453;50.852;7.102;2023-08-06T06:29:47;16.90;99.90
10802;DHT22;5453;50.852;7.102;2023-08-06T06:32:20;16.90;99.90
10802;DHT22;5453;50.852;7.102;2023-08-06T06:34:52;16.90;99.90
10802;DHT22;5453;50.852;7.102;2023-08-06T06:37:25;16.90;99.90
10802;DHT22;5453;50.852;7.102;2023-08-06T06:39:57;16.90;99.90
10802;DHT22;5453;50.852;7.102;2023-08-06T06:42:30;16.90;99.90
10802;DHT22;5453;50.852;7.102;2023-08-06T06:45:08;16.90;99.90
10802;DHT22;5453;50.852;7.102;2023-08-06T06:47:41;16.90;99.90
10802;DHT22;5453;50.852;7.102;2023-08-06T06:50:13;16.80;99.90
10802;DHT22;5453;50.852;7.102;2023-08-06T06:52:46;16.90;99.90
10802;DHT22;5453;50.852;7.102;2023-08-06T06:55:18;16.90;99.90
10802;DHT22;5453;50.852;7.102;2023-08-06T06:57:50;16.90;99.90
10802;DHT22;5453;50.852;7.102;2023-08-06T07:00:24;16.80;99.90
10802;DHT22;5453;50.852;7.102;2023-08-06T07:02:57;16.80;99.90
10802;DHT22;5453;50.852;7.102;2023-08-06T07:05:29;16.80;99.90
10802;DHT22;5453;50.852;7.102;2023-08-06T07:08:01;16.80;99.90
10802;DHT22;5453;50.852;7.102;2023-08-06T07:10:34;16.80;99.90
10802;DHT22;5453;50.852;7.102;2023-08-06T07:13:06;16.70;99.90
10802;DHT22;5453;50.852;7.102;2023-08-06T07:15:40;16.70;99.90
10802;DHT22;5453;50.852;7.102;2023-08-06T07:18:12;16.70;99.90
10802;DHT22;5453;50.852;7.102;2023-08-06T07:20:48;16.70;99.90
10802;DHT22;5453;50.852;7.102;2023-08-06T07:23:27;16.70;99.90
10802;DHT22;5453;50.852;7.102;2023-08-06T07:25:59;16.70;99.90
10802;DHT22;5453;50.852;7.102;2023-08-06T07:28:31;16.70;99.90
10802;DHT22;5453;50.852;7.102;2023-08-06T07:31:05;16.70;99.90
10802;DHT22;5453;50.852;7.102;2023-08-06T07:33:41;16.70;99.90
10802;DHT22;5453;50.852;7.102;2023-08-06T07:36:14;16.70;99.90
10802;DHT22;5453;50.852;7.102;2023-08-06T07:38:46;16.70;99.90
10802;DHT22;5453;50.852;7.102;2023-08-06T07:41:22;16.70;99.90
10802;DHT22;5453;50.852;7.102;2023-08-06T07:43:54;16.70;99.90
10802;DHT22;5453;50.852;7.102;2023-08-06T07:46:28;16.70;99.90
10802;DHT22;5453;50.852;7.102;2023-08-06T07:49:00;16.70;99.90
10802;DHT22;5453;50.852;7.102;2023-08-06T07:51:36;16.70;99.90
10802;DHT22;5453;50.852;7.102;2023-08-06T07:54:08;16.70;99.90
10802;DHT22;5453;50.852;7.102;2023-08-06T07:56:41;16.70;99.90
10802;DHT22;5453;50.852;7.102;2023-08-06T07:59:13;16.60;99.90
10802;DHT22;5453;50.852;7.102;2023-08-06T08:01:50;16.60;99.90
10802;DHT22;5453;50.852;7.102;2023-08-06T08:04:23;16.50;99.90
10802;DHT22;5453;50.852;7.102;2023-08-06T08:06:56;16.60;99.90
10802;DHT22;5453;50.852;7.102;2023-08-06T08:09:28;16.50;99.90
10802;DHT22;5453;50.852;7.102;2023-08-06T08:12:00;16.60;99.90
10802;DHT22;5453;50.852;7.102;2023-08-06T08:14:33;16.70;99.90
10802;DHT22;5453;50.852;7.102;2023-08-06T08:17:08;16.70;99.90
10802;DHT22;5453;50.852;7.102;2023-08-06T08:19:40;16.80;99.90
10802;DHT22;5453;50.852;7.102;2023-08-06T08:22:13;16.80;99.90
10802;DHT22;5453;50.852;7.102;2023-08-06T08:24:45;17.00;99.90
10802;DHT22;5453;50.852;7.102;2023-08-06T08:27:17;17.00;99.90
10802;DHT22;5453;50.852;7.102;2023-08-06T08:29:56;17.10;99.90
10802;DHT22;5453;50.852;7.102;2023-08-06T08:32:30;17.20;99.90
10802;DHT22;5453;50.852;7.102;2023-08-06T08:35:02;17.20;99.90
10802;DHT22;5453;50.852;7.102;2023-08-06T08:37:38;17.20;99.90
10802;DHT22;5453;50.852;7.102;2023-08-06T08:40:11;17.30;99.90
10802;DHT22;5453;50.852;7.102;2023-08-06T08:42:43;17.30;99.90
10802;DHT22;5453;50.852;7.102;2023-08-06T08:45:17;17.30;99.90
10802;DHT22;5453;50.852;7.102;2023-08-06T08:47:57;17.30;99.90
10802;DHT22;5453;50.852;7.102;2023-08-06T08:50:29;17.40;99.90
10802;DHT22;5453;50.852;7.102;2023-08-06T08:53:02;17.40;99.90
10802;DHT22;5453;50.852;7.102;2023-08-06T08:55:35;17.40;99.90
10802;DHT22;5453;50.852;7.102;2023-08-06T08:58:07;17.40;99.90
10802;DHT22;5453;50.852;7.102;2023-08-06T09:00:41;17.40;99.90
10802;DHT22;5453;50.852;7.102;2023-08-06T09:03:16;17.40;99.90
10802;DHT22;5453;50.852;7.102;2023-08-06T09:05:52;17.40;99.90
10802;DHT22;5453;50.852;7.102;2023-08-06T09:08:31;17.40;99.90
10802;DHT22;5453;50.852;7.102;2023-08-06T09:11:06;17.40;99.90
10802;DHT22;5453;50.852;7.102;2023-08-06T09:13:41;17.40;99.90
10802;DHT22;5453;50.852;7.102;2023-08-06T09:16:14;17.40;99.90
10802;DHT22;5453;50.852;7.102;2023-08-06T09:18:47;17.40;99.90
10802;DHT22;5453;50.852;7.102;2023-08-06T09:21:20;17.50;99.90
10802;DHT22;5453;50.852;7.102;2023-08-06T09:23:55;17.60;99.90
10802;DHT22;5453;50.852;7.102;2023-08-06T09:26:33;17.70;99.90
10802;DHT22;5453;50.852;7.102;2023-08-06T09:29:06;17.70;99.90
10802;DHT22;5453;50.852;7.102;2023-08-06T09:31:42;17.80;99.90
10802;DHT22;5453;50.852;7.102;2023-08-06T09:34:17;17.90;99.90
10802;DHT22;5453;50.852;7.102;2023-08-06T09:36:53;18.10;99.90
10802;DHT22;5453;50.852;7.102;2023-08-06T09:39:27;18.30;99.90
10802;DHT22;5453;50.852;7.102;2023-08-06T09:42:03;18.50;99.90
10802;DHT22;5453;50.852;7.102;2023-08-06T09:44:36;18.80;99.90
10802;DHT22;5453;50.852;7.102;2023-08-06T09:47:10;19.10;99.90
10802;DHT22;5453;50.852;7.102;2023-08-06T09:49:44;19.50;99.90
10802;DHT22;5453;50.852;7.102;2023-08-06T09:52:16;19.70;99.90
10802;DHT22;5453;50.852;7.102;2023-08-06T09:54:49;19.90;99.90
10802;DHT22;5453;50.852;7.102;2023-08-06T09:57:24;19.90;99.90
10802;DHT22;5453;50.852;7.102;2023-08-06T09:59:57;20.00;99.90
10802;DHT22;5453;50.852;7.102;2023-08-06T10:02:29;19.90;99.90
10802;DHT22;5453;50.852;7.102;2023-08-06T10:05:03;19.60;99.90
10802;DHT22;5453;50.852;7.102;2023-08-06T10:07:37;19.30;99.90
10802;DHT22;5453;50.852;7.102;2023-08-06T10:10:10;19.00;99.90
10802;DHT22;5453;50.852;7.102;2023-08-06T10:12:46;18.90;99.90
10802;DHT22;5453;50.852;7.102;2023-08-06T10:15:24;18.70;99.90
10802;DHT22;5453;50.852;7.102;2023-08-06T10:17:58;18.50;99.90
10802;DHT22;5453;50.852;7.102;2023-08-06T10:20:34;18.30;99.90
10802;DHT22;5453;50.852;7.102;2023-08-06T10:23:07;18.10;99.90
10802;DHT22;5453;50.852;7.102;2023-08-06T10:25:41;17.90;99.90
10802;DHT22;5453;50.852;7.102;2023-08-06T10:28:13;17.80;99.90
10802;DHT22;5453;50.852;7.102;2023-08-06T10:30:48;17.60;99.90
10802;DHT22;5453;50.852;7.102;2023-08-06T10:33:21;17.50;99.90
10802;DHT22;5453;50.852;7.102;2023-08-06T10:36:01;17.30;99.90
10802;DHT22;5453;50.852;7.102;2023-08-06T10:38:44;17.00;99.90
10802;DHT22;5453;50.852;7.102;2023-08-06T10:41:23;16.70;99.90
10802;DHT22;5453;50.852;7.102;2023-08-06T10:44:05;16.50;99.90
10802;DHT22;5453;50.852;7.102;2023-08-06T10:46:39;16.40;99.90
10802;DHT22;5453;50.852;7.102;2023-08-06T10:49:12;16.30;99.90
10802;DHT22;5453;50.852;7.102;2023-08-06T10:51:47;16.10;99.90
10802;DHT22;5453;50.852;7.102;2023-08-06T10:54:20;16.00;99.90
10802;DHT22;5453;50.852;7.102;2023-08-06T10:56:52;15.90;99.90
10802;DHT22;5453;50.852;7.102;2023-08-06T10:59:24;15.80;99.90
10802;DHT22;5453;50.852;7.102;2023-08-06T11:02:01;15.70;99.90
10802;DHT22;5453;50.852;7.102;2023-08-06T11:04:33;15.60;99.90
10802;DHT22;5453;50.852;7.102;2023-08-06T11:07:08;15.60;99.90
10802;DHT22;5453;50.852;7.102;2023-08-06T11:09:41;15.60;99.90
10802;DHT22;5453;50.852;7.102;2023-08-06T11:12:18;15.60;99.90
10802;DHT22;5453;50.852;7.102;2023-08-06T11:14:51;15.60;99.90
10802;DHT22;5453;50.852;7.102;2023-08-06T11:17:23;15.60;99.90
10802;DHT22;5453;50.852;7.102;2023-08-06T11:19:59;15.50;99.90
10802;DHT22;5453;50.852;7.102;2023-08-06T11:22:33;15.60;99.90
10802;DHT22;5453;50.852;7.102;2023-08-06T11:25:06;15.50;99.90
10802;DHT22;5453;50.852;7.102;2023-08-06T11:27:39;15.50;99.90
10802;DHT22;5453;50.852;7.102;2023-08-06T11:30:15;15.50;99.90
10802;DHT22;5453;50.852;7.102;2023-08-06T11:32:47;15.50;99.90
10802;DHT22;5453;50.852;7.102;2023-08-06T11:35:20;15.50;99.90
10802;DHT22;5453;50.852;7.102;2023-08-06T11:37:54;15.50;99.90
10802;DHT22;5453;50.852;7.102;2023-08-06T11:40:26;15.50;99.90
10802;DHT22;5453;50.852;7.102;2023-08-06T11:42:59;15.50;99.90
10802;DHT22;5453;50.852;7.102;2023-08-06T11:45:32;15.50;99.90
10802;DHT22;5453;50.852;7.102;2023-08-06T11:48:07;15.50;99.90
10802;DHT22;5453;50.852;7.102;2023-08-06T11:50:40;15.50;99.90
10802;DHT22;5453;50.852;7.102;2023-08-06T11:53:14;15.50;99.90
10802;DHT22;5453;50.852;7.102;2023-08-06T11:55:47;15.50;99.90
10802;DHT22;5453;50.852;7.102;2023-08-06T11:58:20;15.50;99.90
10802;DHT22;5453;50.852;7.102;2023-08-06T12:00:52;15.50;99.90
10802;DHT22;5453;50.852;7.102;2023-08-06T12:03:26;15.50;99.90
10802;DHT22;5453;50.852;7.102;2023-08-06T12:06:01;15.50;99.90
10802;DHT22;5453;50.852;7.102;2023-08-06T12:08:34;15.60;99.90
10802;DHT22;5453;50.852;7.102;2023-08-06T12:11:09;15.60;99.90
10802;DHT22;5453;50.852;7.102;2023-08-06T12:13:41;15.70;99.90
10802;DHT22;5453;50.852;7.102;2023-08-06T12:16:13;15.70;99.90
10802;DHT22;5453;50.852;7.102;2023-08-06T12:18:48;15.70;99.90
10802;DHT22;5453;50.852;7.102;2023-08-06T12:21:20;15.70;99.90
10802;DHT22;5453;50.852;7.102;2023-08-06T12:23:54;15.70;99.90
10802;DHT22;5453;50.852;7.102;2023-08-06T12:26:26;15.70;99.90
10802;DHT22;5453;50.852;7.102;2023-08-06T12:28:59;15.80;99.90
10802;DHT22;5453;50.852;7.102;2023-08-06T12:31:31;15.80;99.90
10802;DHT22;5453;50.852;7.102;2023-08-06T12:34:06;15.90;99.90
10802;DHT22;5453;50.852;7.102;2023-08-06T12:36:39;16.00;99.90
10802;DHT22;5453;50.852;7.102;2023-08-06T12:39:12;16.10;99.90
10802;DHT22;5453;50.852;7.102;2023-08-06T12:41:45;16.10;99.90
10802;DHT22;5453;50.852;7.102;2023-08-06T12:44:17;16.10;99.90
10802;DHT22;5453;50.852;7.102;2023-08-06T12:46:50;16.10;99.90
10802;DHT22;5453;50.852;7.102;2023-08-06T12:49:23;16.20;99.90
10802;DHT22;5453;50.852;7.102;2023-08-06T12:51:56;16.20;99.90
10802;DHT22;5453;50.852;7.102;2023-08-06T12:54:32;16.10;99.90
10802;DHT22;5453;50.852;7.102;2023-08-06T12:57:07;16.10;99.90
10802;DHT22;5453;50.852;7.102;2023-08-06T12:59:39;16.10;99.90
10802;DHT22;5453;50.852;7.102;2023-08-06T13:02:15;16.10;99.90
10802;DHT22;5453;50.852;7.102;2023-08-06T13:04:47;16.10;99.90
10802;DHT22;5453;50.852;7.102;2023-08-06T13:07:20;16.10;99.90
10802;DHT22;5453;50.852;7.102;2023-08-06T13:09:54;16.10;99.90
10802;DHT22;5453;50.852;7.102;2023-08-06T13:12:29;16.00;99.90
10802;DHT22;5453;50.852;7.102;2023-08-06T13:15:01;16.00;99.90
10802;DHT22;5453;50.852;7.102;2023-08-06T13:17:34;15.90;99.90
10802;DHT22;5453;50.852;7.102;2023-08-06T13:20:07;15.90;99.90
10802;DHT22;5453;50.852;7.102;2023-08-06T13:22:40;15.80;99.90
10802;DHT22;5453;50.852;7.102;2023-08-06T13:25:14;15.80;99.90
10802;DHT22;5453;50.852;7.102;2023-08-06T13:27:47;15.80;99.90
10802;DHT22;5453;50.852;7.102;2023-08-06T13:30:20;15.80;99.90
10802;DHT22;5453;50.852;7.102;2023-08-06T13:32:53;15.80;99.90
10802;DHT22;5453;50.852;7.102;2023-08-06T13:35:27;15.80;99.90
10802;DHT22;5453;50.852;7.102;2023-08-06T13:37:59;15.80;99.90
10802;DHT22;5453;50.852;7.102;2023-08-06T13:40:35;15.80;99.90
10802;DHT22;5453;50.852;7.102;2023-08-06T13:43:08;15.90;99.90
10802;DHT22;5453;50.852;7.102;2023-08-06T13:45:40;15.90;99.90
10802;DHT22;5453;50.852;7.102;2023-08-06T13:48:12;15.90;99.90
10802;DHT22;5453;50.852;7.102;2023-08-06T13:50:45;15.90;99.90
10802;DHT22;5453;50.852;7.102;2023-08-06T13:53:17;15.90;99.90
10802;DHT22;5453;50.852;7.102;2023-08-06T13:55:51;15.80;99.90
10802;DHT22;5453;50.852;7.102;2023-08-06T13:58:26;15.90;99.90
10802;DHT22;5453;50.852;7.102;2023-08-06T14:00:59;15.80;99.90
10802;DHT22;5453;50.852;7.102;2023-08-06T14:03:31;15.80;99.90
10802;DHT22;5453;50.852;7.102;2023-08-06T14:06:04;15.80;99.90
10802;DHT22;5453;50.852;7.102;2023-08-06T14:08:36;15.80;99.90
10802;DHT22;5453;50.852;7.102;2023-08-06T14:11:10;15.80;99.90
10802;DHT22;5453;50.852;7.102;2023-08-06T14:13:42;15.80;99.90
10802;DHT22;5453;50.852;7.102;2023-08-06T14:16:15;15.80;99.90
10802;DHT22;5453;50.852;7.102;2023-08-06T14:18:48;15.90;99.90
10802;DHT22;5453;50.852;7.102;2023-08-06T14:21:20;15.90;99.90
10802;DHT22;5453;50.852;7.102;2023-08-06T14:23:52;15.90;99.90
10802;DHT22;5453;50.852;7.102;2023-08-06T14:26:26;15.90;99.90
10802;DHT22;5453;50.852;7.102;2023-08-06T14:28:59;15.90;99.90
10802;DHT22;5453;50.852;7.102;2023-08-06T14:31:32;15.90;99.90
10802;DHT22;5453;50.852;7.102;2023-08-06T14:34:04;15.90;99.90
10802;DHT22;5453;50.852;7.102;2023-08-06T14:36:37;15.90;99.90
10802;DHT22;5453;50.852;7.102;2023-08-06T14:39:09;15.90;99.90
10802;DHT22;5453;50.852;7.102;2023-08-06T14:41:43;15.90;99.90
10802;DHT22;5453;50.852;7.102;2023-08-06T14:44:18;15.90;99.90
10802;DHT22;5453;50.852;7.102;2023-08-06T14:46:50;16.00;99.90
10802;DHT22;5453;50.852;7.102;2023-08-06T14:49:23;16.00;99.90
10802;DHT22;5453;50.852;7.102;2023-08-06T14:51:56;16.10;99.90
10802;DHT22;5453;50.852;7.102;2023-08-06T14:54:30;16.20;99.90
10802;DHT22;5453;50.852;7.102;2023-08-06T14:57:04;16.20;99.90
10802;DHT22;5453;50.852;7.102;2023-08-06T14:59:37;16.20;99.90
10802;DHT22;5453;50.852;7.102;2023-08-06T15:02:10;16.30;99.90
10802;DHT22;5453;50.852;7.102;2023-08-06T15:04:43;16.30;99.90
10802;DHT22;5453;50.852;7.102;2023-08-06T15:07:15;16.30;99.90
10802;DHT22;5453;50.852;7.102;2023-08-06T15:09:48;16.20;99.90
10802;DHT22;5453;50.852;7.102;2023-08-06T15:12:25;16.30;99.90
10802;DHT22;5453;50.852;7.102;2023-08-06T15:14:58;16.20;99.90
10802;DHT22;5453;50.852;7.102;2023-08-06T15:17:31;16.30;99.90
10802;DHT22;5453;50.852;7.102;2023-08-06T15:20:04;16.40;99.90
10802;DHT22;5453;50.852;7.102;2023-08-06T15:22:37;16.40;99.90
10802;DHT22;5453;50.852;7.102;2023-08-06T15:25:09;16.40;99.90
10802;DHT22;5453;50.852;7.102;2023-08-06T15:27:43;16.40;99.90
10802;DHT22;5453;50.852;7.102;2023-08-06T15:30:16;16.40;99.90
10802;DHT22;5453;50.852;7.102;2023-08-06T15:32:48;16.50;99.90
10802;DHT22;5453;50.852;7.102;2023-08-06T15:35:20;16.40;99.90
10802;DHT22;5453;50.852;7.102;2023-08-06T15:37:53;16.50;99.90
10802;DHT22;5453;50.852;7.102;2023-08-06T15:40:28;16.50;99.90
10802;DHT22;5453;50.852;7.102;2023-08-06T15:43:02;16.50;99.90
10802;DHT22;5453;50.852;7.102;2023-08-06T15:45:34;16.50;99.90
10802;DHT22;5453;50.852;7.102;2023-08-06T15:48:07;16.50;99.90
10802;DHT22;5453;50.852;7.102;2023-08-06T15:50:39;16.50;99.90
10802;DHT22;5453;50.852;7.102;2023-08-06T15:53:12;16.50;99.90
10802;DHT22;5453;50.852;7.102;2023-08-06T15:55:46;16.50;99.90
10802;DHT22;5453;50.852;7.102;2023-08-06T15:58:19;16.50;99.90
10802;DHT22;5453;50.852;7.102;2023-08-06T16:00:52;16.60;99.90
10802;DHT22;5453;50.852;7.102;2023-08-06T16:03:24;16.60;99.90
10802;DHT22;5453;50.852;7.102;2023-08-06T16:05:57;16.60;99.90
10802;DHT22;5453;50.852;7.102;2023-08-06T16:08:32;16.60;99.90
10802;DHT22;5453;50.852;7.102;2023-08-06T16:11:05;16.50;99.90
10802;DHT22;5453;50.852;7.102;2023-08-06T16:13:39;16.60;99.90
10802;DHT22;5453;50.852;7.102;2023-08-06T16:16:11;16.50;99.90
10802;DHT22;5453;50.852;7.102;2023-08-06T16:18:44;16.50;99.90
10802;DHT22;5453;50.852;7.102;2023-08-06T16:21:16;16.50;99.90
10802;DHT22;5453;50.852;7.102;2023-08-06T16:23:49;16.40;99.90
10802;DHT22;5453;50.852;7.102;2023-08-06T16:26:22;16.40;99.90